Time;durP1;ratioP1;P1;durP2;ratioP2;P2;SDS_P1;SDS_P2;PMS_P1;PMS_P2;Temp;Humidity;BMP_temperature;BMP_pressure;BME280_temperature;BME280_humidity;BME280_pressure;Samples;Min_cycle;Max_cycle;Signal;HPM_P1;HPM_P2
2021/05/12 00:02:16;;;;;;;;;;;;;;;5.59;100.00;98179.50;5000377;28;19922;-80
2021/05/12 00:04:43;;;;;;;;;;;;;;;5.59;100.00;98182.25;4993196;28;19929;-80
2021/05/12 00:07:10;;;;;;;;;;;;;;;5.54;100.00;98174.41;5013415;28;19975;-80
2021/05/12 00:09:38;;;;;;;;;;;;;;;5.44;100.00;98178.84;5013723;28;19926;-80
2021/05/12 00:12:05;;;;;;;;;;;;;;;5.45;100.00;98165.81;5013564;28;20258;-80
2021/05/12 00:14:33;;;;;;;;;;;;;;;5.59;100.00;98169.19;4993683;28;19921;-80
2021/05/12 00:17:00;;;;;;;;;;;;;;;5.46;100.00;98173.69;5013145;28;20060;-80
2021/05/12 00:19:29;;;;;;;;;;;;;;;5.33;100.00;98169.84;4995984;28;19921;-80
2021/05/12 00:22:43;;;;;;;;;;;;;;;5.31;100.00;98166.72;5013380;28;19929;-80
2021/05/12 00:24:46;;;;;;;;;;;;;;;5.50;100.00;98163.34;4992923;28;19965;-80
2021/05/12 00:27:14;;;;;;;;;;;;;;;5.65;100.00;98166.00;4992491;28;19936;-80
2021/05/12 00:29:42;;;;;;;;;;;;;;;5.73;100.00;98170.22;5001583;28;19925;-80
2021/05/12 00:32:11;;;;;;;;;;;;;;;5.58;100.00;98175.16;5013486;28;20007;-80
2021/05/12 00:34:40;;;;;;;;;;;;;;;5.66;100.00;98175.88;4995798;28;19925;-80
2021/05/12 00:37:07;;;;;;;;;;;;;;;5.78;100.00;98178.09;5013085;28;20019;-80
2021/05/12 00:39:37;;;;;;;;;;;;;;;5.81;100.00;98180.06;5008830;28;19938;-80
2021/05/12 00:42:05;;;;;;;;;;;;;;;5.86;100.00;98185.94;5012326;28;20008;-80
2021/05/12 00:44:32;;;;;;;;;;;;;;;5.85;100.00;98189.13;5013074;28;19921;-80
2021/05/12 00:47:04;;;;;;;;;;;;;;;5.77;100.00;98193.19;5013531;28;19921;-80
2021/05/12 00:49:32;;;;;;;;;;;;;;;5.77;100.00;98193.94;4999342;28;20431;-80
2021/05/12 00:51:59;;;;;;;;;;;;;;;5.93;100.00;98196.19;5016483;28;20000;-80
2021/05/12 00:54:27;;;;;;;;;;;;;;;5.93;100.00;98201.72;4999595;28;19926;-80
2021/05/12 00:56:54;;;;;;;;;;;;;;;6.04;100.00;98207.94;5016495;28;19998;-80
2021/05/12 00:59:30;;;;;;;;;;;;;;;6.05;100.00;98206.75;5016533;28;19922;-80
2021/05/12 01:01:57;;;;;;;;;;;;;;;6.00;100.00;98205.22;5016617;28;19926;-80
2021/05/12 01:04:24;;;;;;;;;;;;;;;6.01;100.00;98214.31;5017200;28;20016;-80
2021/05/12 01:06:54;;;;;;;;;;;;;;;6.05;100.00;98199.22;5016202;28;19921;-80
2021/05/12 01:09:21;;;;;;;;;;;;;;;6.08;100.00;98203.13;4989178;28;19921;-80
2021/05/12 01:11:50;;;;;;;;;;;;;;;6.12;100.00;98203.91;5016395;28;19925;-80
2021/05/12 01:14:18;;;;;;;;;;;;;;;6.10;100.00;98206.28;5015426;28;20280;-80
2021/05/12 01:16:46;;;;;;;;;;;;;;;6.11;100.00;98203.09;5026377;28;19977;-80
2021/05/12 01:19:13;;;;;;;;;;;;;;;6.12;100.00;98199.13;5006319;28;19928;-80
2021/05/12 01:21:41;;;;;;;;;;;;;;;6.13;100.00;98205.47;5023736;28;19921;-80
2021/05/12 01:24:08;;;;;;;;;;;;;;;6.09;100.00;98205.50;5036159;28;19928;-79
2021/05/12 01:26:36;;;;;;;;;;;;;;;6.07;100.00;98209.91;5031302;28;19928;-80
2021/05/12 01:29:05;;;;;;;;;;;;;;;6.10;100.00;98217.38;5030085;28;20035;-80
2021/05/12 01:31:33;;;;;;;;;;;;;;;6.12;100.00;98389.72;5018195;28;19921;-80
2021/05/12 01:34:02;;;;;;;;;;;;;;;6.11;100.00;98476.88;5018263;28;19928;-80
2021/05/12 01:36:30;;;;;;;;;;;;;;;6.09;100.00;98581.91;5033552;28;20012;-80
2021/05/12 01:38:58;;;;;;;;;;;;;;;6.21;100.00;98625.81;5028912;28;19960;-80
2021/05/12 01:41:26;;;;;;;;;;;;;;;6.21;100.00;98673.00;5000595;28;20018;-79
2021/05/12 01:43:54;;;;;;;;;;;;;;;6.08;100.00;98699.59;5030462;28;19921;-79
2021/05/12 01:46:21;;;;;;;;;;;;;;;6.04;100.00;98785.59;5005683;28;19975;-79
2021/05/12 01:48:48;;;;;;;;;;;;;;;6.01;100.00;98793.91;5028200;28;20273;-79
2021/05/12 01:51:16;;;;;;;;;;;;;;;6.04;100.00;98790.34;5001402;28;19921;-79
2021/05/12 01:53:43;;;;;;;;;;;;;;;5.99;100.00;98793.50;5030539;28;19928;-80
2021/05/12 01:56:11;;;;;;;;;;;;;;;5.91;100.00;98805.84;5033844;28;19920;-80
2021/05/12 01:58:38;;;;;;;;;;;;;;;5.91;100.00;98814.91;5020732;28;19975;-80
2021/05/12 02:01:05;;;;;;;;;;;;;;;5.90;100.00;98815.31;4998462;28;19929;-79
2021/05/12 02:03:33;;;;;;;;;;;;;;;5.95;100.00;98820.47;5015863;28;19921;-80
2021/05/12 02:06:00;;;;;;;;;;;;;;;5.97;100.00;98818.09;5009277;28;19960;-80
2021/05/12 02:08:27;;;;;;;;;;;;;;;6.00;100.00;98829.16;5035194;28;19925;-79
2021/05/12 02:10:56;;;;;;;;;;;;;;;6.03;100.00;98833.16;5022749;28;19921;-80
2021/05/12 02:13:25;;;;;;;;;;;;;;;6.03;100.00;98828.38;5017797;28;19925;-80
2021/05/12 02:15:52;;;;;;;;;;;;;;;5.94;100.00;98825.22;4997575;28;19921;-80
2021/05/12 02:18:20;;;;;;;;;;;;;;;5.90;100.00;98829.97;5027666;28;20011;-80
2021/05/12 02:20:47;;;;;;;;;;;;;;;5.92;100.00;98830.38;5004255;28;20051;-79
2021/05/12 02:23:15;;;;;;;;;;;;;;;6.07;100.00;98845.00;5027316;28;20055;-80
2021/05/12 02:25:43;;;;;;;;;;;;;;;6.13;100.00;98848.97;5006386;28;19921;-80
2021/05/12 02:28:11;;;;;;;;;;;;;;;6.24;100.00;98853.28;5021233;28;19929;-80
2021/05/12 02:30:39;;;;;;;;;;;;;;;6.32;100.00;98863.19;5015311;28;20076;-80
2021/05/12 02:33:07;;;;;;;;;;;;;;;6.32;100.00;98854.88;4997663;28;19929;-80
2021/05/12 02:35:38;;;;;;;;;;;;;;;6.35;100.00;98856.84;5015180;28;19921;-80
2021/05/12 02:38:06;;;;;;;;;;;;;;;6.34;100.00;98854.47;5015326;28;19925;-80
2021/05/12 02:40:33;;;;;;;;;;;;;;;6.23;100.00;98853.69;4997532;28;20397;-80
2021/05/12 02:43:01;;;;;;;;;;;;;;;6.16;100.00;98854.50;5015348;28;20075;-80
2021/05/12 02:45:30;;;;;;;;;;;;;;;6.18;100.00;98851.34;5006220;28;19952;-80
2021/05/12 02:47:59;;;;;;;;;;;;;;;6.01;100.00;98847.41;5001022;28;19953;-80
2021/05/12 02:50:28;;;;;;;;;;;;;;;5.73;100.00;98841.03;4997589;28;19921;-80
2021/05/12 02:52:55;;;;;;;;;;;;;;;5.54;100.00;98839.47;4996929;28;19925;-80
2021/05/12 02:55:23;;;;;;;;;;;;;;;5.54;100.00;98834.72;5014519;28;19921;-80
2021/05/12 02:57:50;;;;;;;;;;;;;;;5.53;100.00;98838.69;5013323;28;19925;-80
2021/05/12 03:00:20;;;;;;;;;;;;;;;5.55;100.00;98841.84;5014544;28;19928;-80
2021/05/12 03:02:49;;;;;;;;;;;;;;;5.60;100.00;98848.97;5014538;28;19929;-80
2021/05/12 03:05:18;;;;;;;;;;;;;;;5.58;100.00;98846.59;5014581;28;19926;-80
2021/05/12 03:07:46;;;;;;;;;;;;;;;5.60;100.00;98855.28;5014669;28;19975;-80
2021/05/12 03:10:14;;;;;;;;;;;;;;;5.69;100.00;98845.81;5013778;28;19936;-80
2021/05/12 03:12:42;;;;;;;;;;;;;;;5.68;100.00;98858.84;5013793;28;19925;-80
2021/05/12 03:15:11;;;;;;;;;;;;;;;5.63;100.00;98857.28;5011981;28;19921;-80
2021/05/12 03:17:39;;;;;;;;;;;;;;;5.47;100.00;98856.09;5010899;28;19925;-80
2021/05/12 03:20:06;;;;;;;;;;;;;;;5.37;100.00;98854.91;5014437;28;19928;-80
2021/05/12 03:22:34;;;;;;;;;;;;;;;5.31;100.00;98859.25;5007488;28;19922;-80
2021/05/12 03:25:01;;;;;;;;;;;;;;;5.40;100.00;98867.16;5008363;28;20004;-79
2021/05/12 03:27:29;;;;;;;;;;;;;;;5.50;100.00;98869.94;4996077;28;19929;-80
2021/05/12 03:29:56;;;;;;;;;;;;;;;5.60;100.00;98871.16;5003410;28;19965;-80
2021/05/12 03:32:23;;;;;;;;;;;;;;;5.81;100.00;98881.44;5011779;28;19989;-80
2021/05/12 03:34:51;;;;;;;;;;;;;;;5.77;100.00;98884.22;5005249;28;19926;-80
2021/05/12 03:37:18;;;;;;;;;;;;;;;5.69;100.00;98887.38;5011618;28;20426;-80
2021/05/12 03:39:45;;;;;;;;;;;;;;;5.77;100.00;98892.53;5013334;28;20380;-80
2021/05/12 03:42:12;;;;;;;;;;;;;;;5.93;100.00;98900.47;5013521;28;19921;-80
2021/05/12 03:44:39;;;;;;;;;;;;;;;6.17;100.00;98906.03;4989561;28;19921;-80
2021/05/12 03:47:06;;;;;;;;;;;;;;;6.28;100.00;98912.34;5007687;28;19929;-80
2021/05/12 03:49:34;;;;;;;;;;;;;;;6.39;100.00;98915.13;4996876;28;19987;-79
2021/05/12 03:52:02;;;;;;;;;;;;;;;6.31;100.00;98907.97;5013800;28;20044;-79
2021/05/12 03:54:29;;;;;;;;;;;;;;;6.27;100.00;98910.75;4995313;28;19987;-79
2021/05/12 03:56:56;;;;;;;;;;;;;;;6.24;100.00;98905.22;5009287;28;19922;-79
2021/05/12 03:59:23;;;;;;;;;;;;;;;6.17;100.00;98905.22;4993156;28;19929;-79
2021/05/12 04:01:51;;;;;;;;;;;;;;;6.02;100.00;98903.66;5009019;28;20012;-80
2021/05/12 04:04:18;;;;;;;;;;;;;;;6.09;100.00;98906.44;5010521;28;19922;-80
2021/05/12 04:06:48;;;;;;;;;;;;;;;6.11;100.00;98907.63;4980073;28;19925;-80
2021/05/12 04:09:15;;;;;;;;;;;;;;;6.16;100.00;98914.75;5012013;28;19928;-80
2021/05/12 04:11:45;;;;;;;;;;;;;;;6.05;100.00;98916.72;5000126;28;19921;-80
2021/05/12 04:14:12;;;;;;;;;;;;;;;5.97;100.00;98917.94;5012483;28;19976;-80
2021/05/12 04:16:39;;;;;;;;;;;;;;;5.93;100.00;98923.47;5013380;28;19925;-80
2021/05/12 04:19:06;;;;;;;;;;;;;;;5.92;100.00;98926.63;5013321;28;19921;-80
2021/05/12 04:21:33;;;;;;;;;;;;;;;5.92;100.00;98932.19;4999130;28;19973;-80
2021/05/12 04:24:02;;;;;;;;;;;;;;;6.05;100.00;98936.94;5016451;28;19921;-80
2021/05/12 04:26:30;;;;;;;;;;;;;;;6.15;100.00;98943.69;4999594;28;19921;-80
2021/05/12 04:28:57;;;;;;;;;;;;;;;6.28;100.00;98939.31;5016859;28;19922;-79
2021/05/12 04:31:25;;;;;;;;;;;;;;;6.26;100.00;98948.03;5016906;28;19921;-79
2021/05/12 04:33:52;;;;;;;;;;;;;;;6.21;100.00;98950.41;5016652;28;19973;-80
2021/05/12 04:36:19;;;;;;;;;;;;;;;6.22;100.00;98958.34;5021614;28;19922;-80
2021/05/12 04:38:47;;;;;;;;;;;;;;;6.21;100.00;98962.28;5016330;28;19944;-80
2021/05/12 04:41:14;;;;;;;;;;;;;;;6.24;100.00;98966.28;5026494;28;19921;-80
2021/05/12 04:43:41;;;;;;;;;;;;;;;6.27;100.00;98971.81;5035999;28;19932;-80
2021/05/12 04:46:08;;;;;;;;;;;;;;;6.32;100.00;98976.16;4992172;28;19925;-79
2021/05/12 04:48:35;;;;;;;;;;;;;;;6.43;100.00;98988.84;5021926;28;19945;-80
2021/05/12 04:51:02;;;;;;;;;;;;;;;6.49;100.00;98990.03;5029018;28;20043;-80
2021/05/12 04:53:30;;;;;;;;;;;;;;;6.58;100.00;99001.53;5030041;28;20403;-79
2021/05/12 04:55:57;;;;;;;;;;;;;;;6.65;100.00;99004.28;5029952;28;19920;-80
2021/05/12 04:58:24;;;;;;;;;;;;;;;6.71;100.00;99007.47;5027813;28;19920;-79
2021/05/12 05:00:51;;;;;;;;;;;;;;;6.75;100.00;99008.25;5029957;28;19943;-80
2021/05/12 05:03:18;;;;;;;;;;;;;;;6.84;100.00;99022.50;5019080;28;19925;-80
2021/05/12 05:05:45;;;;;;;;;;;;;;;6.94;100.00;99028.03;5021758;28;20522;-79
2021/05/12 05:08:14;;;;;;;;;;;;;;;7.04;100.00;99034.78;5010369;28;19928;-79
2021/05/12 05:10:41;;;;;;;;;;;;;;;7.21;100.00;99042.25;5004861;28;19921;-79
2021/05/12 05:13:08;;;;;;;;;;;;;;;7.36;100.00;99052.16;5023177;28;19936;-80
2021/05/12 05:15:35;;;;;;;;;;;;;;;7.40;100.00;99058.47;4999095;28;20385;-80
2021/05/12 05:18:03;;;;;;;;;;;;;;;7.42;100.00;99056.09;5030500;28;19921;-80
2021/05/12 05:20:30;;;;;;;;;;;;;;;7.52;100.00;99066.38;5009897;28;19975;-79
2021/05/12 05:22:57;;;;;;;;;;;;;;;7.52;100.00;99062.78;5017506;28;19922;-80
2021/05/12 05:25:24;;;;;;;;;;;;;;;7.58;100.00;99070.31;5006106;28;20373;-80
2021/05/12 05:27:51;;;;;;;;;;;;;;;7.70;100.00;99083.78;5015009;28;20372;-80
2021/05/12 05:30:18;;;;;;;;;;;;;;;7.82;100.00;99086.09;5016130;28;20369;-80
2021/05/12 05:33:21;;;;;;;;;;;;;;;7.91;100.00;99094.00;4951663;28;19922;-80
2021/05/12 05:36:23;;;;;;;;;;;;;;;7.88;100.00;99094.81;4935186;29;20299;-79
2021/05/12 05:39:09;;;;;;;;;;;;;;;8.02;100.00;99109.47;4934888;29;20064;-80
2021/05/12 05:41:55;;;;;;;;;;;;;;;7.96;100.00;99104.72;4935442;29;19989;-78
2021/05/12 05:44:41;;;;;;;;;;;;;;;7.88;100.00;99103.16;4922854;29;20370;-79
2021/05/12 05:47:28;;;;;;;;;;;;;;;8.01;100.00;99109.88;4935954;29;19927;-80
2021/05/12 05:50:14;;;;;;;;;;;;;;;9.01;100.00;99149.38;4935950;29;20271;-81
2021/05/12 05:53:20;;;;;;;;;;;;;;;9.87;100.00;99183.59;4898109;29;19923;-80
2021/05/12 05:56:25;;;;;;;;;;;;;;;10.38;100.00;99187.00;4833232;29;19939;-76
2021/05/12 05:59:06;;;;;;;;;;;;;;;11.00;100.00;99200.44;5077937;28;19962;-79
2021/05/12 06:01:51;;;;;;;;;;;;;;;10.82;100.00;99166.41;5048286;28;19932;-84
2021/05/12 06:04:39;;;;;;;;;;;;;;;11.02;100.00;99150.50;5068916;28;19929;-83
2021/05/12 06:07:44;;;;;;;;;;;;;;;10.92;100.00;99115.09;5064011;28;20023;-83
2021/05/12 06:10:41;;;;;;;;;;;;;;;10.98;100.00;99088.25;4987333;28;19926;-84
2021/05/12 06:13:27;;;;;;;;;;;;;;;11.28;100.00;99062.97;4986253;28;19930;-84
2021/05/12 06:16:13;;;;;;;;;;;;;;;11.03;100.00;99023.47;4988564;28;20546;-84
2021/05/12 06:18:59;;;;;;;;;;;;;;;10.68;100.00;98971.78;4974783;28;19926;-83
2021/05/12 06:21:44;;;;;;;;;;;;;;;10.19;100.00;98932.75;4972416;28;20017;-84
2021/05/12 06:24:30;;;;;;;;;;;;;;;9.53;100.00;98909.41;4978247;28;20337;-79
2021/05/12 06:27:16;;;;;;;;;;;;;;;9.64;100.00;98902.50;4976077;28;20533;-80
2021/05/12 06:30:03;;;;;;;;;;;;;;;9.92;100.00;98901.28;4995153;28;20404;-80
2021/05/12 06:32:52;;;;;;;;;;;;;;;10.60;100.00;98900.47;5004299;28;20412;-80
2021/05/12 06:35:41;;;;;;;;;;;;;;;11.15;100.00;98863.44;4999006;28;19933;-81
2021/05/12 06:38:27;;;;;;;;;;;;;;;11.59;100.00;98787.31;4995864;28;19933;-80
2021/05/12 06:40:58;;;;;;;;;;;;;;;12.07;100.00;98734.09;4988898;28;20065;-81
2021/05/12 06:43:25;;;;;;;;;;;;;;;12.55;100.00;98654.69;4991663;28;19933;-80
2021/05/12 06:45:58;;;;;;;;;;;;;;;13.28;100.00;98600.28;4991469;28;20296;-78
2021/05/12 06:48:25;;;;;;;;;;;;;;;13.99;100.00;98529.13;5076529;28;19931;-79
2021/05/12 06:50:53;;;;;;;;;;;;;;;14.32;100.00;98455.19;5079197;28;20003;-80
2021/05/12 06:53:24;;;;;;;;;;;;;;;14.14;100.00;98389.69;5100269;28;19978;-81
2021/05/12 06:55:51;;;;;;;;;;;;;;;14.76;100.00;98332.03;5085308;28;19967;-81
2021/05/12 06:58:19;;;;;;;;;;;;;;;15.22;100.00;98280.06;5071231;28;20035;-81
2021/05/12 07:00:46;;;;;;;;;;;;;;;15.11;100.00;98257.28;5089608;28;20477;-81
2021/05/12 07:03:13;;;;;;;;;;;;;;;15.87;100.00;98229.44;5083414;28;20306;-81
2021/05/12 07:05:40;;;;;;;;;;;;;;;16.23;100.00;98188.97;5081877;28;20265;-81
2021/05/12 07:08:07;;;;;;;;;;;;;;;16.46;100.00;98133.81;5086355;28;19948;-80
2021/05/12 07:10:36;;;;;;;;;;;;;;;15.94;100.00;98124.09;5059755;28;19932;-79
2021/05/12 07:13:03;;;;;;;;;;;;;;;14.56;100.00;98111.66;5060234;28;19929;-79
2021/05/12 07:15:30;;;;;;;;;;;;;;;13.51;100.00;98103.16;5064004;28;19924;-79
2021/05/12 07:17:58;;;;;;;;;;;;;;;13.16;100.00;98101.84;5074488;28;19928;-80
2021/05/12 07:20:27;;;;;;;;;;;;;;;13.06;100.00;98108.63;5076123;28;19925;-84
2021/05/12 07:23:05;;;;;;;;;;;;;;;14.25;100.00;98107.06;5044223;28;19928;-85
2021/05/12 07:25:33;;;;;;;;;;;;;;;15.60;100.00;98094.44;5054681;28;19932;-85
2021/05/12 07:28:00;;;;;;;;;;;;;;;15.36;100.00;98067.53;5054878;28;19952;-85
2021/05/12 07:30:28;;;;;;;;;;;;;;;14.86;100.00;98063.59;5054855;28;19935;-84
2021/05/12 07:32:56;;;;;;;;;;;;;;;14.31;100.00;98065.06;5054996;28;19936;-83
2021/05/12 07:35:23;;;;;;;;;;;;;;;14.65;100.00;98070.25;5038382;28;20377;-84
2021/05/12 07:37:50;;;;;;;;;;;;;;;13.79;100.00;98063.41;5054322;28;19925;-85
2021/05/12 07:40:17;;;;;;;;;;;;;;;13.53;100.00;98073.38;5037764;28;19956;-85
2021/05/12 07:42:46;;;;;;;;;;;;;;;13.57;100.00;98078.84;5051413;28;19925;-84
2021/05/12 07:45:13;;;;;;;;;;;;;;;13.32;100.00;98070.69;5062358;28;20384;-84
2021/05/12 07:47:41;;;;;;;;;;;;;;;13.02;100.00;98065.97;5052008;28;19928;-85
2021/05/12 07:50:09;;;;;;;;;;;;;;;13.96;100.00;98073.06;5055230;28;19928;-86
2021/05/12 07:52:37;;;;;;;;;;;;;;;14.00;100.00;98072.88;5053362;28;19925;-85
2021/05/12 07:55:05;;;;;;;;;;;;;;;13.62;100.00;98069.78;5070886;28;19925;-85
2021/05/12 07:57:32;;;;;;;;;;;;;;;13.96;100.00;98080.69;5052638;28;19925;-86
2021/05/12 08:00:01;;;;;;;;;;;;;;;14.06;100.00;98082.22;5070535;28;19971;-83
2021/05/12 08:02:39;;;;;;;;;;;;;;;13.86;100.00;98070.69;5070664;28;19975;-87
2021/05/12 08:05:06;;;;;;;;;;;;;;;14.51;100.00;98076.53;5055427;28;19924;-86
2021/05/12 08:07:34;;;;;;;;;;;;;;;14.75;100.00;98066.16;5039010;28;19935;-80
2021/05/12 08:10:01;;;;;;;;;;;;;;;15.37;100.00;98063.47;5054481;28;19947;-78
2021/05/12 08:12:28;;;;;;;;;;;;;;;15.23;100.00;98056.53;5055958;28;19959;-80
2021/05/12 08:14:55;;;;;;;;;;;;;;;15.60;100.00;98062.72;5072020;28;20007;-81
2021/05/12 08:17:22;;;;;;;;;;;;;;;15.45;100.00;98059.84;5058033;28;19936;-80
2021/05/12 08:19:49;;;;;;;;;;;;;;;15.24;100.00;98057.28;5053246;28;19929;-80
2021/05/12 08:22:16;;;;;;;;;;;;;;;15.46;100.00;98069.88;5051933;28;19932;-80
2021/05/12 08:24:43;;;;;;;;;;;;;;;15.15;100.00;98058.13;5055082;28;19928;-79
2021/05/12 08:27:11;;;;;;;;;;;;;;;15.66;100.00;98055.91;5061726;28;19925;-78
2021/05/12 08:29:41;;;;;;;;;;;;;;;15.48;100.00;98060.94;5060442;28;19924;-79
2021/05/12 08:32:10;;;;;;;;;;;;;;;15.88;100.00;98050.75;5056322;28;19929;-79
2021/05/12 08:34:37;;;;;;;;;;;;;;;16.59;100.00;98042.03;5060914;28;20295;-78
2021/05/12 08:37:04;;;;;;;;;;;;;;;16.92;100.00;98045.38;5065154;28;20065;-79
2021/05/12 08:39:32;;;;;;;;;;;;;;;17.24;100.00;98046.34;5079291;28;19971;-79
2021/05/12 08:42:00;;;;;;;;;;;;;;;17.37;100.00;98027.78;5063825;28;19932;-79
2021/05/12 08:44:27;;;;;;;;;;;;;;;17.45;100.00;98033.81;5061873;28;20359;-79
2021/05/12 08:46:54;;;;;;;;;;;;;;;15.83;100.00;98031.69;5062075;28;19929;-79
2021/05/12 08:49:22;;;;;;;;;;;;;;;15.87;100.00;98046.34;5060250;28;19924;-78
2021/05/12 08:51:51;;;;;;;;;;;;;;;16.67;100.00;98036.78;5053288;28;19925;-79
2021/05/12 08:54:18;;;;;;;;;;;;;;;16.72;100.00;98039.66;5065690;28;19924;-80
2021/05/12 08:56:45;;;;;;;;;;;;;;;15.43;100.00;98047.50;5054932;28;20277;-83
2021/05/12 08:59:14;;;;;;;;;;;;;;;14.57;100.00;98045.78;5061527;28;19928;-83
2021/05/12 09:01:43;;;;;;;;;;;;;;;15.77;100.00;98047.69;5053583;28;20303;-84
2021/05/12 09:04:11;;;;;;;;;;;;;;;15.99;100.00;98045.28;5064498;28;20371;-82
2021/05/12 09:06:38;;;;;;;;;;;;;;;16.02;100.00;98047.16;5056042;28;19987;-82
2021/05/12 09:09:08;;;;;;;;;;;;;;;16.72;100.00;98036.09;5054957;28;19925;-83
2021/05/12 09:11:35;;;;;;;;;;;;;;;16.08;100.00;98050.09;5052626;28;20019;-83
2021/05/12 09:14:02;;;;;;;;;;;;;;;15.31;100.00;98046.44;5053706;28;19991;-83
2021/05/12 09:16:30;;;;;;;;;;;;;;;15.18;100.00;98047.94;5053191;28;19935;-83
2021/05/12 09:19:03;;;;;;;;;;;;;;;15.63;100.00;98050.50;5053929;28;20476;-83
2021/05/12 09:21:44;;;;;;;;;;;;;;;15.45;100.00;98054.22;5037915;28;20015;-82
2021/05/12 09:24:18;;;;;;;;;;;;;;;15.81;100.00;98053.16;5051456;28;19925;-83
2021/05/12 09:26:46;;;;;;;;;;;;;;;15.64;100.00;98050.00;5035745;28;19970;-82
2021/05/12 09:29:20;;;;;;;;;;;;;;;15.96;100.00;98054.72;5056412;28;20011;-82
2021/05/12 09:31:47;;;;;;;;;;;;;;;16.15;100.00;98046.88;5054407;28;20039;-83
2021/05/12 09:34:15;;;;;;;;;;;;;;;15.96;100.00;98051.16;5053929;28;19932;-82
2021/05/12 09:36:42;;;;;;;;;;;;;;;15.91;100.00;98055.41;5052629;28;19925;-82
2021/05/12 09:39:10;;;;;;;;;;;;;;;16.20;100.00;98047.00;5051839;28;20388;-83
2021/05/12 09:41:38;;;;;;;;;;;;;;;16.16;100.00;98051.28;5053020;28;19932;-82
2021/05/12 09:44:07;;;;;;;;;;;;;;;16.17;100.00;98050.00;5052345;28;19975;-82
2021/05/12 09:46:42;;;;;;;;;;;;;;;16.17;100.00;98061.25;5052780;28;20013;-82
2021/05/12 09:49:13;;;;;;;;;;;;;;;15.97;100.00;98053.47;5053053;28;19929;-82
2021/05/12 09:51:42;;;;;;;;;;;;;;;15.94;100.00;98062.91;5052349;28;20372;-82
2021/05/12 09:54:13;;;;;;;;;;;;;;;16.11;100.00;98058.31;5055431;28;19932;-82
2021/05/12 09:56:57;;;;;;;;;;;;;;;16.05;100.00;98054.63;5052330;28;20011;-82
2021/05/12 09:59:25;;;;;;;;;;;;;;;16.04;100.00;98061.53;5057174;28;19925;-82
2021/05/12 10:01:54;;;;;;;;;;;;;;;15.77;100.00;98056.16;5052885;28;20023;-80
2021/05/12 10:04:24;;;;;;;;;;;;;;;15.20;100.00;98060.31;5062283;28;20359;-80
2021/05/12 10:06:51;;;;;;;;;;;;;;;15.37;100.00;98069.91;5062935;28;20364;-80
2021/05/12 10:09:23;;;;;;;;;;;;;;;15.31;100.00;98062.56;5056916;28;19970;-81
2021/05/12 10:12:00;;;;;;;;;;;;;;;14.70;100.00;98057.59;5054493;28;20530;-82
2021/05/12 10:14:27;;;;;;;;;;;;;;;15.03;100.00;98058.34;5058362;28;19925;-81
2021/05/12 10:16:55;;;;;;;;;;;;;;;15.39;100.00;98056.13;5071996;28;19934;-81
2021/05/12 10:19:23;;;;;;;;;;;;;;;15.23;100.00;98050.13;5076881;28;19925;-80
2021/05/12 10:21:51;;;;;;;;;;;;;;;15.36;100.00;98054.25;5063939;28;19925;-86
2021/05/12 10:24:19;;;;;;;;;;;;;;;15.52;100.00;98062.31;5068968;28;19929;-85
2021/05/12 10:26:46;;;;;;;;;;;;;;;15.30;100.00;98058.97;5052079;28;19925;-84
2021/05/12 10:29:17;;;;;;;;;;;;;;;15.59;100.00;98061.94;5053487;28;19925;-84
2021/05/12 10:31:44;;;;;;;;;;;;;;;15.68;100.00;98064.69;5067874;28;19924;-85
2021/05/12 10:34:30;;;;;;;;;;;;;;;15.67;100.00;98065.94;5052028;28;19925;-86
2021/05/12 10:37:17;;;;;;;;;;;;;;;15.50;100.00;98059.19;5051984;28;19932;-86
2021/05/12 10:39:48;;;;;;;;;;;;;;;15.84;100.00;98057.81;5045275;28;19931;-87
2021/05/12 10:42:35;;;;;;;;;;;;;;;15.59;100.00;98053.47;5056428;28;19924;-85
2021/05/12 10:45:05;;;;;;;;;;;;;;;15.35;100.00;98055.50;5022440;28;19929;-85
2021/05/12 10:47:39;;;;;;;;;;;;;;;15.53;100.00;98069.50;5043042;28;19928;-85
2021/05/12 10:50:07;;;;;;;;;;;;;;;15.05;100.00;98058.66;5077193;28;19925;-85
2021/05/12 10:52:35;;;;;;;;;;;;;;;15.77;100.00;98056.16;5060201;28;19925;-85
2021/05/12 10:55:02;;;;;;;;;;;;;;;15.91;100.00;98054.63;5055656;28;20456;-85
2021/05/12 10:57:35;;;;;;;;;;;;;;;16.27;100.00;98045.81;5056355;28;19971;-86
2021/05/12 11:00:05;;;;;;;;;;;;;;;16.10;100.00;98048.31;5045763;28;20002;-85
2021/05/12 11:02:51;;;;;;;;;;;;;;;16.07;100.00;98056.97;5060741;28;19964;-86
2021/05/12 11:05:19;;;;;;;;;;;;;;;15.78;100.00;98057.69;5047918;28;19939;-85
2021/05/12 11:08:05;;;;;;;;;;;;;;;15.72;100.00;98051.19;5060054;28;20372;-85
2021/05/12 11:10:48;;;;;;;;;;;;;;;15.93;100.00;98064.13;5062533;28;19929;-86
2021/05/12 11:13:19;;;;;;;;;;;;;;;15.80;100.00;98065.66;5057205;28;20019;-85
2021/05/12 11:15:50;;;;;;;;;;;;;;;15.80;100.00;98060.81;5063456;28;19935;-85
2021/05/12 11:18:39;;;;;;;;;;;;;;;15.76;100.00;98065.09;5057597;28;20020;-85
2021/05/12 11:21:15;;;;;;;;;;;;;;;15.78;100.00;98068.22;5038319;28;19978;-82
2021/05/12 11:24:02;;;;;;;;;;;;;;;14.94;100.00;98073.25;5052122;28;19928;-86
2021/05/12 11:32:05;;;;;;;;;;;;;;;13.56;100.00;98082.88;5080853;28;19932;-84
2021/05/12 11:34:32;;;;;;;;;;;;;;;13.28;100.00;98079.28;5054754;28;20273;-84
2021/05/12 11:37:11;;;;;;;;;;;;;;;13.28;100.00;98082.09;5068541;28;20380;-85
2021/05/12 11:39:51;;;;;;;;;;;;;;;13.21;100.00;98084.41;5066091;28;19928;-83
2021/05/12 11:42:19;;;;;;;;;;;;;;;13.09;100.00;98099.31;5064142;28;20391;-84
2021/05/12 11:44:47;;;;;;;;;;;;;;;12.90;100.00;98108.88;5037486;28;20016;-84
2021/05/12 11:47:31;;;;;;;;;;;;;;;12.89;100.00;98101.72;5057852;28;19925;-84
2021/05/12 11:49:58;;;;;;;;;;;;;;;12.94;100.00;98109.50;5069813;28;19925;-83
2021/05/12 11:52:30;;;;;;;;;;;;;;;13.04;100.00;98099.94;5023659;28;19929;-84
2021/05/12 11:55:08;;;;;;;;;;;;;;;13.13;100.00;98094.34;5061393;28;19931;-84
2021/05/12 11:57:35;;;;;;;;;;;;;;;13.23;100.00;98098.72;5052153;28;20372;-83
2021/05/12 12:00:08;;;;;;;;;;;;;;;13.51;100.00;98103.91;5056553;28;19948;-84
2021/05/12 12:03:00;;;;;;;;;;;;;;;13.62;100.00;98092.22;5045252;28;19974;-84
2021/05/12 12:05:37;;;;;;;;;;;;;;;13.92;100.00;98088.47;5056786;28;19925;-84
2021/05/12 12:08:14;;;;;;;;;;;;;;;14.34;100.00;98083.78;5073787;28;19928;-86
2021/05/12 12:10:42;;;;;;;;;;;;;;;14.32;100.00;98083.47;5054099;28;19932;-86
2021/05/12 12:13:13;;;;;;;;;;;;;;;14.57;100.00;98088.69;5059311;28;20013;-87
2021/05/12 12:15:43;;;;;;;;;;;;;;;14.66;100.00;98088.66;5062500;28;19929;-86
2021/05/12 12:18:10;;;;;;;;;;;;;;;14.70;100.00;98085.69;5076216;28;19929;-85
2021/05/12 12:20:37;;;;;;;;;;;;;;;14.66;100.00;98085.09;5076806;28;20288;-86
2021/05/12 12:23:05;;;;;;;;;;;;;;;14.23;100.00;98091.91;5054902;28;19975;-86
2021/05/12 12:25:42;;;;;;;;;;;;;;;14.06;100.00;98093.47;5070448;28;19932;-85
2021/05/12 12:28:09;;;;;;;;;;;;;;;13.69;100.00;98092.69;5053658;28;19925;-86
2021/05/12 12:30:38;;;;;;;;;;;;;;;13.41;100.00;98099.53;5054966;28;19924;-86
2021/05/12 12:33:05;;;;;;;;;;;;;;;13.33;100.00;98103.13;5037497;28;19932;-86
2021/05/12 12:35:32;;;;;;;;;;;;;;;13.26;100.00;98097.78;5036748;28;19929;-85
2021/05/12 12:38:10;;;;;;;;;;;;;;;13.23;100.00;98098.72;5070761;28;19924;-86
2021/05/12 12:40:45;;;;;;;;;;;;;;;13.35;100.00;98095.00;5037105;28;20291;-86
2021/05/12 12:43:12;;;;;;;;;;;;;;;13.52;100.00;98094.28;5020539;28;19925;-86
2021/05/12 12:45:42;;;;;;;;;;;;;;;13.81;100.00;98093.81;5053213;28;19925;-86
2021/05/12 12:48:09;;;;;;;;;;;;;;;13.94;100.00;98091.63;5051965;28;20265;-85
2021/05/12 12:50:37;;;;;;;;;;;;;;;14.13;100.00;98090.34;5069878;28;20295;-85
2021/05/12 12:53:05;;;;;;;;;;;;;;;14.18;100.00;98089.72;5053381;28;20037;-85
2021/05/12 12:55:34;;;;;;;;;;;;;;;14.34;100.00;98084.56;5053184;28;19924;-86
2021/05/12 12:58:02;;;;;;;;;;;;;;;14.42;100.00;98082.19;5054041;28;19978;-87
2021/05/12 13:00:33;;;;;;;;;;;;;;;14.34;100.00;98081.75;5055158;28;20687;-87
2021/05/12 13:03:09;;;;;;;;;;;;;;;14.33;100.00;98096.25;5053666;28;19925;-86
2021/05/12 13:05:52;;;;;;;;;;;;;;;14.20;100.00;98081.59;5054025;28;19924;-86